createdAt,value
2023-05-18T00:00:52.874Z,955.6802368
2023-05-18T00:01:53.800Z,955.7067261
2023-05-18T00:02:54.896Z,955.6828613
2023-05-18T00:03:56.294Z,955.6340332
2023-05-18T00:04:56.813Z,955.5703125
2023-05-18T00:05:57.876Z,955.6296997
2023-05-18T00:06:58.855Z,955.5999146
2023-05-18T00:08:00.590Z,955.5858765
2023-05-18T00:09:31.841Z,955.5853271
2023-05-18T00:10:33.234Z,955.5708008
2023-05-18T00:11:33.732Z,955.5981445
2023-05-18T00:12:34.839Z,955.5523682
2023-05-18T00:13:35.814Z,955.5109863
2023-05-18T00:14:37.095Z,955.5499268
2023-05-18T00:15:38.352Z,955.5212402
2023-05-18T00:16:39.644Z,955.5429688
2023-05-18T00:17:40.880Z,955.536377
2023-05-18T00:18:41.887Z,955.5298462
2023-05-18T00:19:43.085Z,955.4331055
2023-05-18T00:20:44.673Z,955.4650879
2023-05-18T00:21:45.860Z,955.4784546
2023-05-18T00:22:46.830Z,955.4584351
2023-05-18T00:23:47.862Z,955.4605713
2023-05-18T00:24:48.820Z,955.425293
2023-05-18T00:25:49.884Z,955.4265747
2023-05-18T00:26:50.823Z,955.4000244
2023-05-18T00:27:51.935Z,955.3886108
2023-05-18T00:28:53.102Z,955.3630981
2023-05-18T00:29:54.255Z,955.399353
2023-05-18T00:30:55.655Z,955.3814697
2023-05-18T00:31:56.941Z,955.3571777
2023-05-18T00:32:57.866Z,955.3911133
2023-05-18T00:33:58.969Z,955.375
2023-05-18T00:35:31.395Z,955.3359375
2023-05-18T00:36:32.628Z,955.3024902
2023-05-18T00:37:34.081Z,955.2845459
2023-05-18T00:38:35.120Z,955.3179932
2023-05-18T00:39:35.622Z,955.2904663
2023-05-18T00:40:36.835Z,955.2489014
2023-05-18T00:41:37.856Z,955.2838135
2023-05-18T00:42:38.820Z,955.2793579
2023-05-18T00:43:39.812Z,955.2822876
2023-05-18T00:44:40.946Z,955.3016968
2023-05-18T00:45:42.396Z,955.2723389
2023-05-18T00:46:43.849Z,955.3070068
2023-05-18T00:47:44.818Z,955.2993774
2023-05-18T00:48:45.260Z,955.269043
2023-05-18T00:49:45.767Z,955.2853394
2023-05-18T00:50:47.175Z,955.2338867
2023-05-18T00:51:48.357Z,955.2321777
2023-05-18T00:52:49.583Z,955.1587524
2023-05-18T00:53:50.835Z,955.1576538
2023-05-18T00:54:51.900Z,955.1328125
2023-05-18T00:55:53.377Z,955.1516113
2023-05-18T00:56:54.357Z,955.1364136
2023-05-18T00:57:55.593Z,955.1275635
2023-05-18T00:58:56.868Z,955.1108398
2023-05-18T00:59:57.844Z,955.081543
2023-05-18T01:01:30.130Z,955.0501709
2023-05-18T01:02:31.163Z,955.0463257
2023-05-18T01:03:31.642Z,955.086731
2023-05-18T01:04:32.613Z,955.0654907
2023-05-18T01:05:33.640Z,955.1118774
2023-05-18T01:06:34.053Z,955.0734863
2023-05-18T01:07:35.436Z,955.0918579
2023-05-18T01:08:36.802Z,955.0409546
2023-05-18T01:09:37.877Z,955.0194702
2023-05-18T01:10:38.869Z,955.0728149
2023-05-18T01:11:39.865Z,955.0731812
2023-05-18T01:12:40.858Z,955.0678711
2023-05-18T01:13:41.816Z,955.0067749
2023-05-18T01:14:42.880Z,955.0072021
2023-05-18T01:15:43.911Z,955.0645142
2023-05-18T01:16:45.526Z,955.0407715
2023-05-18T01:17:46.839Z,955.0909424
2023-05-18T01:18:48.144Z,955.0892334
2023-05-18T01:19:49.132Z,955.0703125
2023-05-18T01:20:49.659Z,955.0599976
2023-05-18T01:21:50.859Z,955.0783081
2023-05-18T01:22:51.858Z,955.095459
2023-05-18T01:23:52.808Z,955.0878296
2023-05-18T01:24:53.869Z,955.0370483
2023-05-18T01:25:54.860Z,955.0518799
2023-05-18T01:26:55.816Z,955.0853271
2023-05-18T01:27:56.293Z,955.0441895
2023-05-18T01:28:57.311Z,955.0106201
2023-05-18T01:29:58.818Z,955.0390625
2023-05-18T01:31:31.149Z,955.034668
2023-05-18T01:32:32.165Z,955.0061035
2023-05-18T01:33:32.533Z,955.0195923
2023-05-18T01:34:33.761Z,955.0054932
2023-05-18T01:35:35.122Z,954.9746704
2023-05-18T01:36:35.635Z,955.0172729
2023-05-18T01:37:36.827Z,955.0296631
2023-05-18T01:38:37.812Z,955.015625
2023-05-18T01:39:38.847Z,955.0488892
2023-05-18T01:40:39.889Z,955.0296631
2023-05-18T01:41:40.990Z,955.0388794
2023-05-18T01:42:42.291Z,955.0253296
2023-05-18T01:43:43.590Z,955.0106812
2023-05-18T01:44:44.599Z,955.0064087
2023-05-18T01:45:45.595Z,955.0159912
2023-05-18T01:46:47.157Z,954.9767456
2023-05-18T01:47:47.692Z,954.9858398
2023-05-18T01:48:48.692Z,954.9901733
2023-05-18T01:49:49.599Z,954.9544678
2023-05-18T01:50:51.130Z,954.9161987
2023-05-18T01:51:52.610Z,954.9765625
2023-05-18T01:52:53.580Z,954.9511108
2023-05-18T01:53:54.625Z,954.9240723
2023-05-18T01:54:55.595Z,954.9434204
2023-05-18T01:55:56.622Z,954.9315796
2023-05-18T01:56:58.165Z,954.9034424
2023-05-18T01:58:30.601Z,954.9266968
2023-05-18T01:59:31.612Z,954.9373169
2023-05-18T02:00:32.648Z,954.9342041
2023-05-18T02:01:33.647Z,954.9502563
2023-05-18T02:02:35.193Z,954.8682861
2023-05-18T02:03:36.279Z,954.8796387
2023-05-18T02:04:37.103Z,954.8925171
2023-05-18T02:05:38.181Z,954.8671875
2023-05-18T02:06:39.608Z,954.8492432
2023-05-18T02:07:41.129Z,954.9037476
2023-05-18T02:08:42.308Z,954.9140015
2023-05-18T02:09:43.729Z,954.8674927
2023-05-18T02:10:44.867Z,954.8954468
2023-05-18T02:11:45.888Z,954.9195557
2023-05-18T02:12:46.917Z,954.9103394
2023-05-18T02:13:48.312Z,954.8948364
2023-05-18T02:14:49.625Z,954.8510132
2023-05-18T02:15:50.633Z,954.8138428
2023-05-18T02:16:52.176Z,954.8439941
2023-05-18T02:17:53.416Z,954.8694458
2023-05-18T02:18:54.680Z,954.8839111
2023-05-18T02:19:55.657Z,954.8384399
2023-05-18T02:20:56.228Z,954.8583374
2023-05-18T02:21:57.646Z,954.9246826
2023-05-18T02:23:29.141Z,954.9910278
2023-05-18T02:24:30.334Z,954.9490356
2023-05-18T02:25:31.788Z,954.9726563
2023-05-18T02:26:33.647Z,954.9953003
2023-05-18T02:27:34.622Z,954.9926758
2023-05-18T02:28:35.598Z,955.0039063
2023-05-18T02:29:36.854Z,955.0233765
2023-05-18T02:30:37.821Z,955.0195923
2023-05-18T02:31:39.117Z,955.017395
2023-05-18T02:32:40.525Z,954.9706421
2023-05-18T02:33:41.970Z,954.9793701
2023-05-18T02:34:43.620Z,954.9806519
2023-05-18T02:35:44.618Z,955.0217285
2023-05-18T02:36:45.105Z,954.9932251
2023-05-18T02:37:46.362Z,955.0187378
2023-05-18T02:38:47.404Z,954.9961548
2023-05-18T02:39:48.865Z,955.0211182
2023-05-18T02:40:50.118Z,955.008728
2023-05-18T02:41:50.524Z,954.9968872
2023-05-18T02:42:51.889Z,955.0261841
2023-05-18T02:43:53.422Z,954.979248
2023-05-18T02:44:54.593Z,954.96521
2023-05-18T02:45:55.160Z,954.9673462
2023-05-18T02:46:56.502Z,954.9389038
2023-05-18T02:48:29.123Z,954.9282227
2023-05-18T02:49:29.626Z,954.9760742
2023-05-18T02:50:30.871Z,954.946106
2023-05-18T02:51:31.841Z,954.9315796
2023-05-18T02:52:33.126Z,954.9425049
2023-05-18T02:53:34.091Z,954.8919678
2023-05-18T02:54:34.519Z,954.9539185
2023-05-18T02:55:35.821Z,954.9373169
2023-05-18T02:56:37.120Z,954.9277954
2023-05-18T02:57:38.303Z,954.9348145
2023-05-18T02:58:38.903Z,954.9451294
2023-05-18T02:59:39.880Z,954.9193726
2023-05-18T03:00:40.795Z,954.907959
2023-05-18T03:01:42.176Z,954.9059448
2023-05-18T03:02:43.260Z,954.9468994
2023-05-18T03:03:43.816Z,954.9536133
2023-05-18T03:04:45.521Z,954.9514771
2023-05-18T03:05:45.834Z,954.9255371
2023-05-18T03:06:46.912Z,954.9499512
2023-05-18T03:07:47.984Z,954.9223633
2023-05-18T03:08:49.354Z,954.9380493
2023-05-18T03:09:50.348Z,954.9099121
2023-05-18T03:10:51.582Z,954.9624023
2023-05-18T03:11:52.619Z,954.9121704
2023-05-18T03:12:53.192Z,954.9758301
2023-05-18T03:13:54.362Z,954.9768677
2023-05-18T03:14:55.445Z,954.9283447
2023-05-18T03:15:56.669Z,954.9430542
2023-05-18T03:16:58.254Z,954.9353638
2023-05-18T03:18:29.625Z,954.9782715
2023-05-18T03:19:30.876Z,954.9647827
2023-05-18T03:20:31.871Z,954.9923706
2023-05-18T03:21:32.831Z,954.9598999
2023-05-18T03:22:34.123Z,954.9642944
2023-05-18T03:23:35.170Z,954.9766235
2023-05-18T03:24:35.742Z,954.9841919
2023-05-18T03:25:36.837Z,954.998291
2023-05-18T03:26:37.307Z,954.9681396
2023-05-18T03:27:38.607Z,954.9675293
2023-05-18T03:28:39.181Z,954.953064
2023-05-18T03:29:40.370Z,954.9788818
2023-05-18T03:30:41.431Z,954.9865723
2023-05-18T03:31:42.655Z,954.9723511
2023-05-18T03:32:43.717Z,954.991394
2023-05-18T03:33:44.077Z,955.0056763
2023-05-18T03:34:45.397Z,954.9755249
2023-05-18T03:35:48.459Z,954.994873
2023-05-18T03:36:47.694Z,955.0165405
2023-05-18T03:37:48.606Z,955.0268555
2023-05-18T03:38:49.048Z,955.0040894
2023-05-18T03:39:50.503Z,954.9748535
2023-05-18T03:40:52.088Z,955.0315552
2023-05-18T03:41:52.494Z,955.003418
2023-05-18T03:42:53.853Z,954.980835
2023-05-18T03:43:54.857Z,955.0164795
2023-05-18T03:44:55.880Z,955.0083008
2023-05-18T03:46:28.257Z,954.9806519
2023-05-18T03:47:29.110Z,954.9876709
2023-05-18T03:48:30.126Z,955.008728
2023-05-18T03:49:30.664Z,954.9877319
2023-05-18T03:50:31.889Z,955.032959
2023-05-18T03:51:33.435Z,955.055603
2023-05-18T03:52:34.660Z,955.0588989
2023-05-18T03:53:35.619Z,955.0762329
2023-05-18T03:54:36.111Z,955.0615845
2023-05-18T03:55:37.371Z,955.0901489
2023-05-18T03:56:38.009Z,955.0878296
2023-05-18T03:57:40.133Z,955.0435791
2023-05-18T03:58:40.605Z,955.0806885
2023-05-18T03:59:41.904Z,955.0893555
2023-05-18T04:00:43.702Z,955.0617676
2023-05-18T04:01:45.219Z,955.0634155
2023-05-18T04:02:46.747Z,955.0639038
2023-05-18T04:03:48.197Z,955.050415
2023-05-18T04:04:49.307Z,955.1369019
2023-05-18T04:05:50.626Z,955.0779419
2023-05-18T04:06:51.120Z,955.0698242
2023-05-18T04:07:52.129Z,955.0651855
2023-05-18T04:08:53.318Z,955.0884399
2023-05-18T04:09:54.329Z,955.1077881
2023-05-18T04:10:55.404Z,955.1207886
2023-05-18T04:11:56.856Z,955.1265869
2023-05-18T04:13:28.642Z,955.133606
2023-05-18T04:14:29.635Z,955.1195068
2023-05-18T04:15:30.788Z,955.1320801
2023-05-18T04:16:31.718Z,955.1170044
2023-05-18T04:17:32.657Z,955.1454468
2023-05-18T04:18:33.610Z,955.1001587
2023-05-18T04:19:34.183Z,955.1682739
2023-05-18T04:20:35.332Z,955.1785889
2023-05-18T04:21:36.506Z,955.1785889
2023-05-18T04:22:37.641Z,955.1915894
2023-05-18T04:23:38.074Z,955.1832886
2023-05-18T04:24:39.310Z,955.2095337
2023-05-18T04:25:40.385Z,955.2262573
2023-05-18T04:26:41.787Z,955.2521973
2023-05-18T04:27:43.158Z,955.2628174
2023-05-18T04:28:44.351Z,955.2460327
2023-05-18T04:29:45.310Z,955.2316895
2023-05-18T04:30:46.291Z,955.2362671
2023-05-18T04:31:47.392Z,955.2391968
2023-05-18T04:32:47.901Z,955.2549438
2023-05-18T04:33:48.285Z,955.2532959
2023-05-18T04:34:49.394Z,955.2575073
2023-05-18T04:35:50.589Z,955.2423706
2023-05-18T04:36:51.617Z,955.2640381
2023-05-18T04:37:52.622Z,955.2705688
2023-05-18T04:38:53.807Z,955.2819824
2023-05-18T04:39:55.132Z,955.2693481
2023-05-18T04:40:55.514Z,955.2991943
2023-05-18T04:42:27.612Z,955.3134155
2023-05-18T04:43:28.094Z,955.3414917
2023-05-18T04:44:29.420Z,955.361084
2023-05-18T04:45:30.567Z,955.352478
2023-05-18T04:46:31.407Z,955.3671875
2023-05-18T04:47:32.653Z,955.3861084
2023-05-18T04:48:33.607Z,955.3640747
2023-05-18T04:49:34.651Z,955.3683472
2023-05-18T04:50:35.623Z,955.3842163
2023-05-18T04:51:36.610Z,955.4106445
2023-05-18T04:52:37.684Z,955.3947144
2023-05-18T04:53:38.645Z,955.3961182
2023-05-18T04:54:39.639Z,955.4195557
2023-05-18T04:55:40.866Z,955.3883667
2023-05-18T04:56:41.708Z,955.4001465
2023-05-18T04:57:42.823Z,955.4060669
2023-05-18T04:58:43.816Z,955.4238892
2023-05-18T04:59:44.908Z,955.420166
2023-05-18T05:00:45.792Z,955.4067383
2023-05-18T05:01:47.192Z,955.4412231
2023-05-18T05:02:48.481Z,955.4179688
2023-05-18T05:03:49.526Z,955.439209
2023-05-18T05:04:50.878Z,955.4554443
2023-05-18T05:05:52.245Z,955.4360962
2023-05-18T05:06:53.480Z,955.4115601
2023-05-18T05:07:54.975Z,955.4104614
2023-05-18T05:09:29.158Z,955.4232788
2023-05-18T05:10:31.452Z,955.401123
2023-05-18T05:11:33.137Z,955.4155273
2023-05-18T05:12:34.632Z,955.4031372
2023-05-18T05:13:36.729Z,955.4285889
2023-05-18T05:14:38.178Z,955.4763794
2023-05-18T05:15:39.768Z,955.4378662
2023-05-18T05:16:41.146Z,955.4880371
2023-05-18T05:17:42.705Z,955.5014038
2023-05-18T05:18:45.933Z,955.5152588
2023-05-18T05:19:45.404Z,955.5216675
2023-05-18T05:20:47.212Z,955.5761719
2023-05-18T05:21:48.427Z,955.5063477
2023-05-18T05:22:49.943Z,955.4997559
2023-05-18T05:23:50.946Z,955.5387573
2023-05-18T05:24:52.486Z,955.5552979
2023-05-18T05:25:54.038Z,955.597168
2023-05-18T05:26:55.862Z,955.5611572
2023-05-18T05:28:27.600Z,955.5756836
2023-05-18T05:29:28.616Z,955.6166992
2023-05-18T05:30:30.111Z,955.5982666
2023-05-18T05:31:31.190Z,955.6344604
2023-05-18T05:32:32.118Z,955.6231079
2023-05-18T05:33:33.106Z,955.6620483
2023-05-18T05:34:34.118Z,955.6080322
2023-05-18T05:35:35.513Z,955.6113892
2023-05-18T05:36:36.637Z,955.6177979
2023-05-18T05:37:37.648Z,955.5934448
2023-05-18T05:38:38.646Z,955.6621704
2023-05-18T05:39:39.122Z,955.6199951
2023-05-18T05:40:40.331Z,955.6160889
2023-05-18T05:41:41.346Z,955.6172485
2023-05-18T05:42:42.368Z,955.6335449
2023-05-18T05:43:43.661Z,955.56604
2023-05-18T05:44:44.841Z,955.5875244
2023-05-18T05:45:45.909Z,955.605957
2023-05-18T05:46:47.397Z,955.5753174
2023-05-18T05:47:48.337Z,955.5940552
2023-05-18T05:48:49.329Z,955.5979614
2023-05-18T05:49:50.301Z,955.5839233
2023-05-18T05:50:51.427Z,955.6292114
2023-05-18T05:51:52.328Z,955.5918579
2023-05-18T05:52:53.325Z,955.6010742
2023-05-18T05:53:54.377Z,955.6090698
2023-05-18T05:55:26.613Z,955.6286011
2023-05-18T05:56:27.662Z,955.6157837
2023-05-18T05:57:29.161Z,955.65625
2023-05-18T05:58:29.570Z,955.6940918
2023-05-18T05:59:30.830Z,955.6986084
2023-05-18T06:00:31.809Z,955.7198486
2023-05-18T06:01:32.905Z,955.7106323
2023-05-18T06:02:34.492Z,955.7056274
2023-05-18T06:03:36.259Z,955.7277832
2023-05-18T06:04:36.513Z,955.7075195
2023-05-18T06:05:37.328Z,955.663269
2023-05-18T06:06:38.608Z,955.6921997
2023-05-18T06:07:39.631Z,955.6987305
2023-05-18T06:08:40.602Z,955.7064209
2023-05-18T06:09:41.618Z,955.6920166
2023-05-18T06:10:42.808Z,955.7103271
2023-05-18T06:11:43.875Z,955.6629028
2023-05-18T06:12:44.876Z,955.7224121
2023-05-18T06:13:45.291Z,955.7462769
2023-05-18T06:14:45.721Z,955.7337646
2023-05-18T06:15:47.100Z,955.7203369
2023-05-18T06:16:48.215Z,955.7544556
2023-05-18T06:17:48.719Z,955.7371216
2023-05-18T06:18:49.940Z,955.7614746
2023-05-18T06:19:51.313Z,955.788147
2023-05-18T06:20:52.339Z,955.7832642
2023-05-18T06:21:53.444Z,955.7463989
2023-05-18T06:23:26.170Z,955.7859497
2023-05-18T06:24:26.524Z,955.8096924
2023-05-18T06:25:27.883Z,955.7642212
2023-05-18T06:26:28.849Z,955.7870483
2023-05-18T06:27:30.111Z,955.7648315
2023-05-18T06:28:31.126Z,955.7771606
2023-05-18T06:29:32.118Z,955.7474976
2023-05-18T06:30:33.121Z,955.7793579
2023-05-18T06:31:34.119Z,955.7601318
2023-05-18T06:32:34.722Z,955.7597046
2023-05-18T06:33:35.938Z,955.7321167
2023-05-18T06:34:37.355Z,955.6991577
2023-05-18T06:35:38.349Z,955.748291
2023-05-18T06:36:39.620Z,955.7581177
2023-05-18T06:37:41.216Z,955.7246704
2023-05-18T06:38:41.643Z,955.7545166
2023-05-18T06:39:42.111Z,955.7357788
2023-05-18T06:40:43.652Z,955.7672119
2023-05-18T06:41:44.919Z,955.8197021
2023-05-18T06:42:46.416Z,955.7845459
2023-05-18T06:43:47.865Z,955.800293
2023-05-18T06:44:49.140Z,955.8069458
2023-05-18T06:45:50.160Z,955.8204956
2023-05-18T06:46:51.120Z,955.8573608
2023-05-18T06:47:52.663Z,955.8529663
2023-05-18T06:48:53.638Z,955.843811
2023-05-18T06:49:54.646Z,955.8364868
2023-05-18T06:51:25.929Z,955.8943481
2023-05-18T06:52:28.156Z,955.9279175
2023-05-18T06:53:29.134Z,955.9057617
2023-05-18T06:54:30.123Z,955.9090576
2023-05-18T06:55:31.377Z,955.9026489
2023-05-18T06:56:32.126Z,955.8842163
2023-05-18T06:57:33.139Z,955.9015503
2023-05-18T06:58:34.143Z,955.8599854
2023-05-18T06:59:35.354Z,955.8748169
2023-05-18T07:00:36.710Z,955.9564209
2023-05-18T07:01:37.726Z,955.9213257
2023-05-18T07:02:39.150Z,955.914978
2023-05-18T07:03:40.190Z,955.9489136
2023-05-18T07:04:41.131Z,955.9350586
2023-05-18T07:05:42.372Z,955.9020386
2023-05-18T07:06:42.764Z,955.9129028
2023-05-18T07:07:43.947Z,955.9177856
2023-05-18T07:08:44.419Z,955.8945313
2023-05-18T07:09:45.940Z,955.9085693
2023-05-18T07:10:46.884Z,955.9000854
2023-05-18T07:11:47.832Z,955.8729858
2023-05-18T07:12:48.805Z,955.8693237
2023-05-18T07:13:49.882Z,955.8407593
2023-05-18T07:14:50.875Z,955.8051758
2023-05-18T07:15:51.895Z,955.817627
2023-05-18T07:16:52.854Z,955.803772
2023-05-18T07:17:53.877Z,955.815918
2023-05-18T07:19:25.736Z,955.8303223
2023-05-18T07:20:26.790Z,955.8618774
2023-05-18T07:21:28.172Z,955.8596802
2023-05-18T07:22:29.110Z,955.8154907
2023-05-18T07:23:30.150Z,955.835022
2023-05-18T07:24:31.181Z,955.8070068
2023-05-18T07:25:31.823Z,955.8512573
2023-05-18T07:26:32.110Z,955.7832031
2023-05-18T07:27:33.127Z,955.8566284
2023-05-18T07:28:34.114Z,955.8373413
2023-05-18T07:29:35.308Z,955.8398438
2023-05-18T07:30:36.415Z,955.8502197
2023-05-18T07:31:37.875Z,955.8399048
2023-05-18T07:32:38.846Z,955.8496704
2023-05-18T07:33:41.139Z,955.868103
2023-05-18T07:34:40.884Z,955.8616333
2023-05-18T07:35:42.490Z,955.8577881
2023-05-18T07:36:43.838Z,955.8432617
2023-05-18T07:37:44.885Z,955.8703003
2023-05-18T07:38:45.835Z,955.8735962
2023-05-18T07:39:47.004Z,955.9372559
2023-05-18T07:40:48.367Z,955.9098511
2023-05-18T07:41:49.460Z,955.9157715
2023-05-18T07:42:50.903Z,955.9418945
2023-05-18T07:43:52.125Z,955.946106
2023-05-18T07:44:53.164Z,955.9465332
2023-05-18T07:45:54.647Z,955.9504395
2023-05-18T07:47:26.271Z,955.9855957
2023-05-18T07:48:27.647Z,955.9834595
2023-05-18T07:49:28.098Z,955.989502
2023-05-18T07:50:28.807Z,955.9770508
2023-05-18T07:51:30.120Z,955.9694824
2023-05-18T07:52:31.694Z,955.9815063
2023-05-18T07:53:32.251Z,955.9899902
2023-05-18T07:54:33.352Z,956.0161133
2023-05-18T07:55:34.743Z,956.0021973
2023-05-18T07:56:36.175Z,955.9827881
2023-05-18T07:57:36.853Z,955.975647
2023-05-18T07:58:37.937Z,955.9415894
2023-05-18T07:59:39.348Z,955.9942017
2023-05-18T08:00:40.469Z,955.9935913
2023-05-18T08:01:42.061Z,955.9590454
2023-05-18T08:02:44.096Z,955.9255371
2023-05-18T08:03:44.988Z,955.9401855
2023-05-18T08:04:45.654Z,955.9212646
2023-05-18T08:05:46.654Z,955.9086914
2023-05-18T08:06:47.134Z,955.9298706
2023-05-18T08:07:48.455Z,955.9785767
2023-05-18T08:08:49.830Z,955.9682617
2023-05-18T08:09:50.915Z,955.942749
2023-05-18T08:10:52.410Z,956.0256348
2023-05-18T08:11:53.860Z,955.9887695
2023-05-18T08:13:25.281Z,956.0070801
2023-05-18T08:14:25.767Z,956.0165405
2023-05-18T08:15:27.651Z,956.0159912
2023-05-18T08:16:29.187Z,956.0073242
2023-05-18T08:17:30.284Z,956.020752
2023-05-18T08:18:30.741Z,956.0402832
2023-05-18T08:19:32.675Z,956.0228271
2023-05-18T08:20:34.143Z,956.0276489
2023-05-18T08:21:35.652Z,956.0227051
2023-05-18T08:22:37.159Z,956.0253296
2023-05-18T08:23:37.628Z,955.9781494
2023-05-18T08:24:38.922Z,955.9650879
2023-05-18T08:25:40.512Z,955.9848633
2023-05-18T08:26:41.912Z,955.9692383
2023-05-18T08:27:43.724Z,955.9902954
2023-05-18T08:28:44.940Z,955.9732666
2023-05-18T08:29:46.395Z,955.9456177
2023-05-18T08:30:47.356Z,955.9138794
2023-05-18T08:31:49.687Z,955.9831543
2023-05-18T08:32:49.362Z,956.0204468
2023-05-18T08:33:50.393Z,955.9971924
2023-05-18T08:34:51.368Z,956.0408325
2023-05-18T08:35:52.362Z,955.9790039
2023-05-18T08:37:24.033Z,956.0060425
2023-05-18T08:38:26.173Z,956.0445557
2023-05-18T08:39:26.607Z,956.0250244
2023-05-18T08:40:27.010Z,956.0588989
2023-05-18T08:41:27.441Z,956.0600586
2023-05-18T08:42:41.497Z,956.0415649
2023-05-18T08:43:30.628Z,955.9899902
2023-05-18T08:44:31.639Z,955.9508057
2023-05-18T08:45:32.868Z,956.0488281
2023-05-18T08:46:33.636Z,956.0368652
2023-05-18T08:47:34.730Z,955.998291
2023-05-18T08:48:35.674Z,956.0373535
2023-05-18T08:49:36.650Z,956.0075073
2023-05-18T08:50:37.863Z,956.0582886
2023-05-18T08:51:38.857Z,956.0547485
2023-05-18T08:52:39.838Z,956.0701294
2023-05-18T08:53:40.853Z,956.0548706
2023-05-18T08:54:41.952Z,956.085144
2023-05-18T08:55:43.136Z,956.0689087
2023-05-18T08:56:44.649Z,956.0421753
2023-05-18T08:57:45.380Z,956.0650024
2023-05-18T08:58:46.918Z,956.0568848
2023-05-18T08:59:48.455Z,956.0653687
2023-05-18T09:00:49.825Z,956.0769043
2023-05-18T09:01:50.895Z,956.0545044
2023-05-18T09:02:52.041Z,956.0823975
2023-05-18T09:04:24.198Z,956.0655518
2023-05-18T09:05:25.234Z,956.1170044
2023-05-18T09:06:26.113Z,956.0686646
2023-05-18T09:07:27.127Z,956.0941162
2023-05-18T09:08:28.112Z,956.1118164
2023-05-18T09:09:29.143Z,956.1085815
2023-05-18T09:10:29.542Z,956.0282593
2023-05-18T09:11:30.049Z,956.0270386
2023-05-18T09:12:31.126Z,956.0287476
2023-05-18T09:13:32.201Z,955.9857788
2023-05-18T09:14:33.111Z,956.0655518
2023-05-18T09:15:34.139Z,956.0913086
2023-05-18T09:16:34.735Z,956.0187378
2023-05-18T09:17:35.858Z,956.0523682
2023-05-18T09:18:36.902Z,956.0653076
2023-05-18T09:19:37.867Z,956.0126343
2023-05-18T09:20:38.861Z,956.0690918
2023-05-18T09:21:40.135Z,956.0270996
2023-05-18T09:22:41.199Z,956.0217285
2023-05-18T09:23:42.130Z,956.0367432
2023-05-18T09:24:43.692Z,956.0540771
2023-05-18T09:25:44.923Z,956.0733032
2023-05-18T09:26:46.693Z,956.1314087
2023-05-18T09:27:47.627Z,956.2034302
2023-05-18T09:28:48.651Z,956.1429443
2023-05-18T09:29:49.853Z,956.1791992
2023-05-18T09:30:50.886Z,956.130127
2023-05-18T09:31:51.929Z,956.1766968
2023-05-18T09:32:53.853Z,956.1472778
2023-05-18T09:34:25.642Z,956.1518555
2023-05-18T09:35:26.690Z,956.1588135
2023-05-18T09:36:28.164Z,956.1950073
2023-05-18T09:37:28.552Z,956.1606445
2023-05-18T09:38:29.637Z,956.1219482
2023-05-18T09:39:30.607Z,956.1418457
2023-05-18T09:40:31.112Z,956.1582642
2023-05-18T09:41:32.167Z,956.1359253
2023-05-18T09:42:33.119Z,956.1096802
2023-05-18T09:43:34.124Z,956.1494751
2023-05-18T09:44:35.130Z,956.0944824
2023-05-18T09:45:36.154Z,956.1578369
2023-05-18T09:46:37.706Z,956.1070557
2023-05-18T09:47:38.235Z,956.1370239
2023-05-18T09:48:38.582Z,956.1270142
2023-05-18T09:49:39.843Z,956.0921631
2023-05-18T09:50:40.840Z,956.1169434
2023-05-18T09:51:41.288Z,956.1482544
2023-05-18T09:52:42.376Z,956.064209
2023-05-18T09:53:43.620Z,956.1130981
2023-05-18T09:54:44.952Z,956.1255493
2023-05-18T09:55:46.371Z,956.0979004
2023-05-18T09:56:58.489Z,956.1073608
2023-05-18T09:57:48.377Z,956.1073608
2023-05-18T09:58:49.364Z,956.0878296
2023-05-18T09:59:50.381Z,956.1099854
2023-05-18T10:00:51.470Z,956.0709229
2023-05-18T10:02:23.714Z,956.0634155
2023-05-18T10:03:24.618Z,956.0568848
2023-05-18T10:04:25.673Z,956.0265503
2023-05-18T10:05:26.628Z,956.0200195
2023-05-18T10:06:27.669Z,956.0215454
2023-05-18T10:07:28.646Z,956.0792847
2023-05-18T10:08:29.620Z,956.059082
2023-05-18T10:09:30.111Z,956.0476685
2023-05-18T10:10:31.393Z,956.0551758
2023-05-18T10:11:31.517Z,956.0953369
2023-05-18T10:12:32.867Z,956.1490479
2023-05-18T10:13:33.259Z,956.1589355
2023-05-18T10:14:33.693Z,956.1436157
2023-05-18T10:15:34.099Z,956.1276855
2023-05-18T10:16:35.170Z,956.1677856
2023-05-18T10:17:36.298Z,956.1948242
2023-05-18T10:18:37.774Z,956.175293
2023-05-18T10:19:38.080Z,956.1224976
2023-05-18T10:20:39.316Z,956.1821289
2023-05-18T10:21:40.340Z,956.1729736
2023-05-18T10:22:41.407Z,956.1045532
2023-05-18T10:23:42.627Z,956.1146851
2023-05-18T10:24:43.626Z,956.1489258
2023-05-18T10:25:44.638Z,956.1068726
2023-05-18T10:26:45.621Z,956.105957
2023-05-18T10:27:47.185Z,956.1795044
2023-05-18T10:28:48.161Z,956.1381836
2023-05-18T10:29:49.327Z,956.1473389
2023-05-18T10:30:50.374Z,956.1017456
2023-05-18T10:31:51.620Z,956.223877
2023-05-18T10:33:29.072Z,956.2575073
2023-05-18T10:34:25.129Z,956.2184448
2023-05-18T10:35:26.129Z,956.2217407
2023-05-18T10:36:26.550Z,956.2097168
2023-05-18T10:37:27.849Z,956.2121582
2023-05-18T10:38:29.648Z,956.2340698
2023-05-18T10:39:30.632Z,956.1525879
2023-05-18T10:40:31.872Z,956.192627
2023-05-18T10:41:32.065Z,956.194397
2023-05-18T10:42:33.164Z,956.2148438
2023-05-18T10:43:34.238Z,956.2197876
2023-05-18T10:44:34.564Z,956.1763916
2023-05-18T10:45:35.857Z,956.2002563
2023-05-18T10:46:37.063Z,956.2119751
2023-05-18T10:47:38.381Z,956.258606
2023-05-18T10:48:38.783Z,956.1574707
2023-05-18T10:49:39.641Z,956.1242065
2023-05-18T10:50:40.650Z,956.2498169
2023-05-18T10:51:42.145Z,956.2474976
2023-05-18T10:52:43.139Z,956.1366577
2023-05-18T10:53:44.682Z,956.2706909
2023-05-18T10:54:45.641Z,956.2814331
2023-05-18T10:55:46.649Z,956.1618042
2023-05-18T10:56:47.638Z,956.2416992
2023-05-18T10:57:48.642Z,956.1846313
2023-05-18T10:58:49.106Z,956.3101807
2023-05-18T10:59:50.349Z,956.2201538
2023-05-18T11:00:51.878Z,956.2553711
2023-05-18T11:02:23.093Z,956.1415405
2023-05-18T11:03:24.346Z,956.2061768
2023-05-18T11:04:25.688Z,956.2358398
2023-05-18T11:05:26.768Z,956.2211914
2023-05-18T11:06:27.683Z,956.1738892
2023-05-18T11:07:28.626Z,956.2075195
2023-05-18T11:08:29.664Z,956.2179565
2023-05-18T11:09:30.700Z,956.1918945
2023-05-18T11:10:31.951Z,956.2423706
2023-05-18T11:11:33.142Z,956.1546631
2023-05-18T11:12:34.165Z,956.2198486
2023-05-18T11:13:35.139Z,956.2247925
2023-05-18T11:14:36.174Z,956.2078247